createdAt,value
2022-10-07T00:01:50.846Z,66.50
2022-10-07T00:04:57.017Z,66.32
2022-10-07T00:08:02.000Z,66.16
2022-10-07T00:11:11.425Z,66.31
2022-10-07T00:14:17.850Z,66.27
2022-10-07T00:17:24.038Z,66.50
2022-10-07T00:20:28.574Z,67.02
2022-10-07T00:23:34.835Z,67.18
2022-10-07T00:26:41.348Z,67.04
2022-10-07T00:29:47.714Z,67.00
2022-10-07T00:32:53.941Z,67.03
2022-10-07T00:36:00.289Z,67.35
2022-10-07T00:39:08.795Z,67.61
2022-10-07T00:42:15.774Z,67.37
2022-10-07T00:45:22.047Z,67.39
2022-10-07T00:48:32.343Z,67.62
2022-10-07T00:51:40.307Z,67.77
2022-10-07T00:54:46.573Z,67.73
2022-10-07T00:57:56.135Z,67.91
2022-10-07T01:01:02.849Z,68.01
2022-10-07T01:04:10.076Z,67.57
2022-10-07T01:07:21.877Z,67.43
2022-10-07T01:10:37.380Z,67.37
2022-10-07T01:13:48.747Z,67.33
2022-10-07T01:17:02.294Z,67.43
2022-10-07T01:20:32.007Z,67.75
2022-10-07T01:23:58.376Z,67.84
2022-10-07T01:27:07.482Z,67.80
2022-10-07T01:30:14.789Z,67.49
2022-10-07T01:33:27.995Z,67.55
2022-10-07T01:36:38.304Z,67.43
2022-10-07T01:39:49.950Z,67.85
2022-10-07T01:42:56.954Z,68.48
2022-10-07T01:46:04.923Z,68.98
2022-10-07T01:49:11.193Z,68.99
2022-10-07T01:52:45.348Z,69.00
2022-10-07T01:56:11.998Z,68.64
2022-10-07T01:59:51.361Z,68.38
2022-10-07T02:03:21.574Z,68.08
2022-10-07T02:06:38.757Z,68.56
2022-10-07T02:09:50.784Z,68.18
2022-10-07T02:13:06.057Z,68.04
2022-10-07T02:16:18.516Z,67.87
2022-10-07T02:19:29.975Z,67.71
2022-10-07T02:22:37.262Z,67.68
2022-10-07T02:25:46.888Z,67.96
2022-10-07T02:28:55.592Z,68.22
2022-10-07T02:32:05.647Z,68.26
2022-10-07T02:35:19.050Z,68.25
2022-10-07T02:38:26.426Z,68.47
2022-10-07T02:41:41.958Z,68.64
2022-10-07T02:44:53.574Z,68.78
2022-10-07T02:48:04.407Z,68.84
2022-10-07T02:51:21.073Z,68.73
2022-10-07T02:54:34.761Z,68.53
2022-10-07T02:57:43.882Z,68.46
2022-10-07T03:00:54.506Z,68.22
2022-10-07T03:04:01.632Z,68.15
2022-10-07T03:07:08.353Z,68.12
2022-10-07T03:10:15.267Z,67.97
2022-10-07T03:13:21.468Z,67.90
2022-10-07T03:16:26.069Z,68.17
2022-10-07T03:19:32.241Z,68.47
2022-10-07T03:22:37.005Z,68.44
2022-10-07T03:25:43.135Z,68.60
2022-10-07T03:28:47.839Z,68.63
2022-10-07T03:31:54.802Z,68.66
2022-10-07T03:35:00.955Z,68.31
2022-10-07T03:38:08.412Z,68.23
2022-10-07T03:41:14.701Z,68.34
2022-10-07T03:44:22.632Z,68.10
2022-10-07T03:47:28.878Z,68.07
2022-10-07T03:50:33.328Z,68.04
2022-10-07T03:53:40.697Z,68.16
2022-10-07T03:56:46.834Z,68.09
2022-10-07T03:59:53.756Z,68.13
2022-10-07T04:03:00.005Z,68.08
2022-10-07T04:06:06.535Z,67.80
2022-10-07T04:09:15.434Z,67.67
2022-10-07T04:12:21.552Z,67.69
2022-10-07T04:15:27.767Z,67.69
2022-10-07T04:18:32.634Z,67.64
2022-10-07T04:21:38.830Z,67.86
2022-10-07T04:24:43.366Z,68.09
2022-10-07T04:27:54.230Z,68.41
2022-10-07T04:31:00.537Z,68.17
2022-10-07T04:34:07.002Z,67.96
2022-10-07T04:37:13.170Z,67.94
2022-10-07T04:40:17.684Z,67.85
2022-10-07T04:43:26.960Z,67.91
2022-10-07T04:46:33.194Z,67.86
2022-10-07T04:49:37.727Z,67.90
2022-10-07T04:52:44.564Z,67.97
2022-10-07T04:55:52.367Z,67.81
2022-10-07T04:58:58.529Z,67.52
2022-10-07T05:02:03.111Z,67.51
2022-10-07T05:05:10.798Z,67.59
2022-10-07T05:08:18.527Z,67.37
2022-10-07T05:11:26.061Z,67.52
2022-10-07T05:14:32.990Z,67.54
2022-10-07T05:17:41.207Z,67.57
2022-10-07T05:20:48.442Z,67.64
2022-10-07T05:23:54.615Z,67.64
2022-10-07T05:26:59.157Z,67.79
2022-10-07T05:30:05.722Z,68.03
2022-10-07T05:33:12.204Z,68.32
2022-10-07T05:36:18.956Z,68.50
2022-10-07T05:39:25.162Z,68.61
2022-10-07T05:42:29.736Z,68.40
2022-10-07T05:45:35.801Z,68.17
2022-10-07T05:48:42.434Z,67.93
2022-10-07T05:51:49.228Z,68.03
2022-10-07T05:54:55.405Z,68.10
2022-10-07T05:58:00.030Z,68.36
2022-10-07T06:01:13.103Z,68.47
2022-10-07T06:04:20.606Z,68.20
2022-10-07T06:07:29.283Z,68.08
2022-10-07T06:10:57.672Z,68.28
2022-10-07T06:14:04.370Z,68.71
2022-10-07T06:17:10.606Z,68.53
2022-10-07T06:20:15.283Z,68.46
2022-10-07T06:23:21.408Z,68.78
2022-10-07T06:26:27.582Z,68.81
2022-10-07T06:29:33.980Z,68.65
2022-10-07T06:32:40.106Z,68.58
2022-10-07T06:35:47.393Z,68.45
2022-10-07T06:38:54.604Z,68.10
2022-10-07T06:42:00.895Z,67.96
2022-10-07T06:45:08.594Z,68.09
2022-10-07T06:48:14.798Z,68.01
2022-10-07T06:51:20.011Z,68.69
2022-10-07T06:54:26.248Z,68.84
2022-10-07T06:57:45.339Z,68.89
2022-10-07T07:00:58.188Z,69.57
2022-10-07T07:04:04.520Z,69.87
2022-10-07T07:07:11.827Z,70.24
2022-10-07T07:10:18.130Z,70.26
2022-10-07T07:13:24.816Z,70.47
2022-10-07T07:16:31.567Z,70.32
2022-10-07T07:19:37.875Z,70.55
2022-10-07T07:22:44.332Z,70.62
2022-10-07T07:25:50.599Z,70.83
2022-10-07T07:28:58.994Z,70.58
2022-10-07T07:32:06.406Z,70.70
2022-10-07T07:35:12.974Z,70.96
2022-10-07T07:38:24.773Z,71.55
2022-10-07T07:41:33.640Z,72.12
2022-10-07T07:44:40.357Z,72.39
2022-10-07T07:47:49.613Z,72.65
2022-10-07T07:50:55.886Z,72.92
2022-10-07T07:54:02.453Z,73.12
2022-10-07T07:57:09.046Z,73.12
2022-10-07T08:00:16.458Z,73.69
2022-10-07T08:03:22.952Z,74.02
2022-10-07T08:06:30.352Z,74.01
2022-10-07T08:09:36.608Z,73.95
2022-10-07T08:12:42.760Z,73.97
2022-10-07T08:15:47.717Z,73.89
2022-10-07T08:18:55.546Z,74.02
2022-10-07T08:22:01.820Z,73.67
2022-10-07T08:25:09.571Z,73.33
2022-10-07T08:28:16.742Z,73.12
2022-10-07T08:31:23.439Z,73.03
2022-10-07T08:34:29.727Z,72.79
2022-10-07T08:37:35.808Z,72.62
2022-10-07T08:40:49.699Z,72.38
2022-10-07T08:43:59.356Z,72.07
2022-10-07T08:47:17.031Z,71.77
2022-10-07T08:50:27.795Z,71.30
2022-10-07T08:53:36.793Z,70.90
2022-10-07T08:56:43.962Z,70.69
2022-10-07T08:59:56.396Z,70.32
2022-10-07T09:03:13.602Z,69.58
2022-10-07T09:06:33.037Z,69.16
2022-10-07T09:09:44.925Z,69.14
2022-10-07T09:12:56.526Z,69.00
2022-10-07T09:16:10.320Z,68.95
2022-10-07T09:19:23.748Z,68.73
2022-10-07T09:22:34.329Z,68.20
2022-10-07T09:25:45.238Z,67.15
2022-10-07T09:28:51.560Z,66.51
2022-10-07T09:31:59.265Z,66.52
2022-10-07T09:35:06.227Z,66.29
2022-10-07T09:38:12.471Z,66.52
2022-10-07T09:41:26.819Z,66.25
2022-10-07T09:44:40.239Z,64.39
2022-10-07T09:47:52.729Z,64.00
2022-10-07T09:51:16.236Z,63.51
2022-10-07T09:54:22.943Z,63.75
2022-10-07T09:57:38.872Z,63.33
2022-10-07T10:00:47.962Z,62.27
2022-10-07T10:04:01.062Z,62.43
2022-10-07T10:07:19.605Z,62.78
2022-10-07T10:10:28.619Z,61.22
2022-10-07T10:14:36.272Z,59.98
2022-10-07T10:17:43.262Z,62.29
2022-10-07T10:20:49.446Z,62.66
2022-10-07T10:23:58.252Z,62.50
2022-10-07T10:27:12.672Z,60.25
2022-10-07T10:30:23.477Z,60.13
2022-10-07T10:33:37.528Z,59.18
2022-10-07T10:36:51.696Z,57.83
2022-10-07T10:40:09.812Z,60.71
2022-10-07T10:43:23.983Z,60.84
2022-10-07T10:46:49.662Z,60.20
2022-10-07T10:50:08.317Z,57.03
2022-10-07T10:53:27.654Z,57.22
2022-10-07T10:56:42.590Z,59.11
2022-10-07T11:00:04.793Z,60.08
2022-10-07T11:03:27.956Z,59.13
2022-10-07T11:06:38.341Z,57.27
2022-10-07T11:09:49.840Z,59.17
2022-10-07T11:12:59.284Z,58.62
2022-10-07T11:16:12.589Z,60.72
2022-10-07T11:19:24.185Z,60.26
2022-10-07T11:22:40.603Z,58.54
2022-10-07T11:25:53.838Z,56.49
2022-10-07T11:29:03.353Z,56.80
2022-10-07T11:32:14.337Z,56.67
2022-10-07T11:35:30.224Z,57.74
2022-10-07T11:38:39.044Z,57.55
2022-10-07T11:41:53.326Z,56.55
2022-10-07T11:45:03.769Z,56.47
2022-10-07T11:48:15.898Z,57.35
2022-10-07T11:51:28.792Z,59.63
2022-10-07T11:54:44.704Z,58.78
2022-10-07T11:57:55.865Z,58.83
2022-10-07T12:01:47.893Z,58.82
2022-10-07T12:04:54.200Z,58.38
2022-10-07T12:08:02.291Z,59.47
2022-10-07T12:11:45.822Z,59.97
2022-10-07T12:15:02.389Z,61.20
2022-10-07T12:18:28.581Z,59.60
2022-10-07T12:22:11.918Z,56.60
2022-10-07T12:25:33.256Z,55.77
2022-10-07T12:28:48.820Z,56.22
2022-10-07T12:31:53.410Z,56.73
2022-10-07T12:35:19.665Z,58.60
2022-10-07T12:38:28.081Z,56.04
2022-10-07T12:41:44.064Z,57.37
2022-10-07T12:44:52.790Z,55.68
2022-10-07T12:48:02.714Z,55.96
2022-10-07T12:51:19.878Z,55.22
2022-10-07T12:54:32.591Z,55.87
2022-10-07T12:57:42.188Z,58.21
2022-10-07T13:01:01.214Z,55.18
2022-10-07T13:04:31.854Z,56.17
2022-10-07T13:08:21.246Z,55.37
2022-10-07T13:12:11.567Z,56.17
2022-10-07T13:15:33.838Z,57.52
2022-10-07T13:18:45.542Z,57.62
2022-10-07T13:22:00.959Z,57.73
2022-10-07T13:25:13.140Z,57.74
2022-10-07T13:28:22.485Z,57.77
2022-10-07T13:31:30.722Z,58.58
2022-10-07T13:34:38.238Z,57.75
2022-10-07T13:37:48.869Z,58.16
2022-10-07T13:41:04.757Z,57.91
2022-10-07T13:44:15.462Z,57.81
2022-10-07T13:47:22.808Z,58.23
2022-10-07T13:50:30.852Z,57.57
2022-10-07T13:53:38.623Z,57.77
2022-10-07T13:56:45.903Z,57.79
2022-10-07T13:59:53.084Z,57.68
2022-10-07T14:02:59.418Z,57.14
2022-10-07T14:06:05.717Z,57.47
2022-10-07T14:09:22.568Z,57.17
2022-10-07T14:12:35.261Z,57.40
2022-10-07T14:15:51.047Z,58.28
2022-10-07T14:18:57.619Z,57.48
2022-10-07T14:22:06.050Z,58.36
2022-10-07T14:25:21.014Z,58.98
2022-10-07T14:28:34.721Z,58.87
2022-10-07T14:31:58.734Z,58.68
2022-10-07T14:35:19.967Z,58.91
2022-10-07T14:38:30.287Z,59.17
2022-10-07T14:41:36.620Z,58.32
2022-10-07T14:44:44.121Z,58.52
2022-10-07T14:47:51.322Z,59.05
2022-10-07T14:50:57.445Z,59.43
2022-10-07T14:54:08.096Z,59.29
2022-10-07T14:57:14.323Z,59.42
2022-10-07T15:00:23.156Z,59.40
2022-10-07T15:03:31.055Z,59.69
2022-10-07T15:06:38.079Z,59.87
2022-10-07T15:09:45.181Z,60.11
2022-10-07T15:12:51.346Z,60.50
2022-10-07T15:15:57.590Z,60.44
2022-10-07T15:19:04.075Z,61.07
2022-10-07T15:22:10.495Z,61.14
2022-10-07T15:25:18.137Z,61.33
2022-10-07T15:28:24.434Z,61.91
2022-10-07T15:31:31.789Z,63.66
2022-10-07T15:34:37.896Z,63.76
2022-10-07T15:37:46.034Z,62.73
2022-10-07T15:40:57.193Z,61.82
2022-10-07T15:44:04.951Z,61.01
2022-10-07T15:47:11.391Z,60.43
2022-10-07T15:50:17.644Z,59.43
2022-10-07T15:53:25.545Z,59.66
2022-10-07T15:56:31.912Z,60.56
2022-10-07T15:59:38.204Z,61.56
2022-10-07T16:02:44.880Z,63.53
2022-10-07T16:05:58.540Z,64.59
2022-10-07T16:09:05.870Z,64.09
2022-10-07T16:12:11.989Z,63.55
2022-10-07T16:15:18.392Z,63.23
2022-10-07T16:18:24.605Z,62.86
2022-10-07T16:21:33.190Z,62.79
2022-10-07T16:24:39.867Z,62.42
2022-10-07T16:28:03.825Z,62.35
2022-10-07T16:31:10.228Z,62.30
2022-10-07T16:34:18.485Z,62.15
2022-10-07T16:37:24.457Z,61.93
2022-10-07T16:40:28.969Z,62.14
2022-10-07T16:43:35.973Z,62.20
2022-10-07T16:46:42.803Z,61.91
2022-10-07T16:49:48.985Z,62.36
2022-10-07T16:52:55.034Z,62.27
2022-10-07T16:56:02.083Z,62.22
2022-10-07T16:59:09.895Z,62.30
2022-10-07T17:02:17.117Z,61.99
2022-10-07T17:05:23.094Z,61.82
2022-10-07T17:08:29.491Z,61.98
2022-10-07T17:11:38.170Z,62.22
2022-10-07T17:14:44.323Z,62.53
2022-10-07T17:17:53.897Z,62.52
2022-10-07T17:21:00.243Z,62.24
2022-10-07T17:24:06.890Z,62.26
2022-10-07T17:27:12.871Z,62.48
2022-10-07T17:30:17.629Z,62.67
2022-10-07T17:33:23.789Z,62.55
2022-10-07T17:36:32.157Z,62.36
2022-10-07T17:39:38.252Z,61.99
2022-10-07T17:42:42.799Z,61.94
2022-10-07T17:45:49.338Z,62.19
2022-10-07T17:48:57.513Z,62.30
2022-10-07T17:52:03.555Z,62.35
2022-10-07T17:55:09.134Z,62.26
2022-10-07T17:58:15.327Z,62.56
2022-10-07T18:01:24.284Z,62.65
2022-10-07T18:04:31.242Z,62.39
2022-10-07T18:07:37.409Z,62.66
2022-10-07T18:10:43.556Z,63.27
2022-10-07T18:14:07.068Z,63.15
2022-10-07T18:17:13.640Z,63.99
2022-10-07T18:20:21.402Z,63.90
2022-10-07T18:23:29.552Z,64.26
2022-10-07T18:26:35.614Z,63.98
2022-10-07T18:29:40.207Z,64.13
2022-10-07T18:32:46.274Z,64.38
2022-10-07T18:35:50.830Z,64.15
2022-10-07T18:38:56.715Z,64.39
2022-10-07T18:42:04.552Z,65.11
2022-10-07T18:45:12.244Z,66.16
2022-10-07T18:48:18.416Z,67.08
2022-10-07T18:51:24.595Z,66.70
2022-10-07T18:54:30.674Z,66.06
2022-10-07T18:57:35.129Z,64.82
2022-10-07T19:00:44.245Z,64.63
2022-10-07T19:03:55.248Z,64.23
2022-10-07T19:07:02.723Z,64.09
2022-10-07T19:10:10.985Z,64.09
2022-10-07T19:13:35.413Z,63.99
2022-10-07T19:16:43.074Z,63.80
2022-10-07T19:19:49.259Z,63.63
2022-10-07T19:22:53.803Z,63.64
2022-10-07T19:26:01.950Z,63.92
2022-10-07T19:29:10.227Z,63.77
2022-10-07T19:32:16.304Z,63.74
2022-10-07T19:35:20.840Z,64.14
2022-10-07T19:38:27.388Z,64.21
2022-10-07T19:41:36.115Z,63.69
2022-10-07T19:44:43.351Z,63.58
2022-10-07T19:47:49.623Z,63.45
2022-10-07T19:51:02.103Z,63.33
2022-10-07T19:54:12.088Z,63.49
2022-10-07T19:57:17.968Z,63.63
2022-10-07T20:00:25.733Z,63.54
2022-10-07T20:03:31.874Z,63.56
2022-10-07T20:06:37.666Z,63.63
2022-10-07T20:09:42.155Z,63.71
2022-10-07T20:12:48.265Z,63.72
2022-10-07T20:15:53.202Z,63.70
2022-10-07T20:19:05.642Z,63.84
2022-10-07T20:22:12.759Z,63.61
2022-10-07T20:25:19.027Z,63.55
2022-10-07T20:28:25.549Z,63.65
2022-10-07T20:31:34.056Z,63.70
2022-10-07T20:34:40.041Z,64.00
2022-10-07T20:37:46.174Z,64.31
2022-10-07T20:41:14.188Z,64.22
2022-10-07T20:44:20.862Z,64.07
2022-10-07T20:47:30.080Z,64.05
2022-10-07T20:50:36.338Z,63.99
2022-10-07T20:53:42.323Z,64.18
2022-10-07T20:56:49.013Z,63.97
2022-10-07T20:59:55.374Z,63.89
2022-10-07T21:03:01.748Z,64.29
2022-10-07T21:06:09.647Z,64.57
2022-10-07T21:09:16.063Z,64.28
2022-10-07T21:12:22.495Z,64.20
2022-10-07T21:15:29.418Z,64.36
2022-10-07T21:18:35.640Z,64.66
2022-10-07T21:21:40.066Z,65.18
2022-10-07T21:24:46.648Z,65.27
2022-10-07T21:27:53.725Z,64.72
2022-10-07T21:31:01.171Z,64.41
2022-10-07T21:34:08.757Z,64.15
2022-10-07T21:37:15.027Z,64.49
2022-10-07T21:40:21.948Z,65.09
2022-10-07T21:43:28.228Z,65.10
2022-10-07T21:46:36.860Z,65.23
2022-10-07T21:49:43.023Z,65.34
2022-10-07T21:52:47.805Z,65.21
2022-10-07T21:55:55.021Z,64.97
2022-10-07T21:59:03.752Z,64.58
2022-10-07T22:02:10.111Z,64.39
2022-10-07T22:05:16.380Z,64.15
2022-10-07T22:08:39.541Z,64.29
2022-10-07T22:11:46.015Z,64.71
2022-10-07T22:14:52.359Z,65.06
2022-10-07T22:17:58.419Z,65.07
2022-10-07T22:21:12.926Z,64.82
2022-10-07T22:24:19.066Z,64.59
2022-10-07T22:27:25.091Z,64.35
2022-10-07T22:30:31.168Z,64.32
2022-10-07T22:33:38.528Z,64.11
2022-10-07T22:36:44.401Z,63.98
2022-10-07T22:39:50.476Z,63.85
2022-10-07T22:42:56.557Z,63.91
2022-10-07T22:46:02.846Z,64.65
2022-10-07T22:49:08.964Z,65.01
2022-10-07T22:52:15.253Z,64.72
2022-10-07T22:55:21.457Z,64.70
2022-10-07T22:58:26.047Z,64.29
2022-10-07T23:01:33.326Z,64.32
2022-10-07T23:04:39.461Z,65.48
2022-10-07T23:07:45.457Z,65.67
2022-10-07T23:10:59.412Z,65.70
2022-10-07T23:14:05.744Z,65.39
2022-10-07T23:17:12.212Z,64.97
2022-10-07T23:20:19.307Z,64.73
2022-10-07T23:23:25.459Z,65.13
2022-10-07T23:26:30.445Z,65.62
2022-10-07T23:29:36.566Z,64.98
2022-10-07T23:32:45.888Z,64.62
2022-10-07T23:35:56.064Z,65.32
2022-10-07T23:39:02.835Z,64.99
2022-10-07T23:42:08.896Z,64.60
2022-10-07T23:45:15.452Z,64.38
2022-10-07T23:48:21.867Z,64.36
2022-10-07T23:51:29.003Z,64.23
2022-10-07T23:54:35.118Z,64.19
2022-10-07T23:57:41.800Z,64.31
